createdAt,value
2023-04-07T00:01:32.650Z,18.83
2023-04-07T00:03:59.731Z,18.27
2023-04-07T00:06:27.522Z,21.40
2023-04-07T00:08:54.591Z,19.50
2023-04-07T00:11:21.224Z,19.35
2023-04-07T00:13:47.950Z,18.25
2023-04-07T00:16:14.720Z,20.30
2023-04-07T00:18:41.608Z,20.30
2023-04-07T00:21:08.239Z,20.17
2023-04-07T00:23:34.972Z,21.00
2023-04-07T00:26:01.805Z,21.13
2023-04-07T00:28:28.505Z,20.70
2023-04-07T00:30:55.143Z,19.85
2023-04-07T00:33:21.936Z,22.38
2023-04-07T00:35:48.632Z,22.65
2023-04-07T00:38:15.336Z,21.27
2023-04-07T00:40:41.953Z,22.13
2023-04-07T00:43:08.762Z,21.65
2023-04-07T00:45:36.618Z,18.13
2023-04-07T00:48:03.600Z,19.92
2023-04-07T00:50:30.308Z,18.50
2023-04-07T00:52:57.235Z,18.48
2023-04-07T00:55:24.009Z,20.15
2023-04-07T00:57:51.950Z,20.27
2023-04-07T01:00:18.758Z,18.60
2023-04-07T01:02:52.263Z,20.75
2023-04-07T01:05:41.352Z,19.55
2023-04-07T01:08:26.384Z,17.50
2023-04-07T01:10:53.170Z,17.77
2023-04-07T01:13:26.285Z,21.58
2023-04-07T01:15:58.523Z,20.92
2023-04-07T01:18:31.556Z,20.27
2023-04-07T01:21:04.638Z,20.17
2023-04-07T01:24:09.857Z,18.95
2023-04-07T01:26:38.715Z,22.35
2023-04-07T01:29:37.895Z,24.15
2023-04-07T01:32:06.537Z,20.15
2023-04-07T01:34:34.423Z,19.60
2023-04-07T01:37:03.052Z,23.02
2023-04-07T01:39:30.471Z,19.77
2023-04-07T01:41:58.916Z,20.15
2023-04-07T01:44:26.693Z,19.80
2023-04-07T01:46:55.669Z,19.05
2023-04-07T01:49:25.312Z,16.52
2023-04-07T01:51:52.486Z,20.95
2023-04-07T01:54:20.644Z,17.92
2023-04-07T01:56:47.304Z,19.40
2023-04-07T01:59:13.964Z,20.38
2023-04-07T02:01:41.056Z,23.60
2023-04-07T02:04:25.833Z,19.98
2023-04-07T02:06:58.776Z,20.50
2023-04-07T02:09:28.884Z,21.85
2023-04-07T02:11:59.057Z,22.75
2023-04-07T02:14:26.109Z,24.02
2023-04-07T02:16:54.177Z,23.60
2023-04-07T02:19:21.278Z,22.00
2023-04-07T02:21:50.864Z,24.40
2023-04-07T02:24:21.091Z,23.92
2023-04-07T02:26:47.999Z,22.95
2023-04-07T02:29:14.704Z,24.45
2023-04-07T02:31:41.506Z,25.45
2023-04-07T02:34:08.253Z,18.83
2023-04-07T02:36:34.991Z,20.58
2023-04-07T02:39:01.635Z,20.02
2023-04-07T02:41:28.324Z,22.35
2023-04-07T02:43:55.362Z,21.38
2023-04-07T02:46:22.195Z,20.17
2023-04-07T02:48:48.845Z,21.50
2023-04-07T02:51:15.488Z,20.98
2023-04-07T02:53:42.066Z,23.25
2023-04-07T02:56:08.813Z,21.48
2023-04-07T02:58:35.438Z,21.73
2023-04-07T03:01:02.149Z,19.27
2023-04-07T03:03:29.132Z,21.83
2023-04-07T03:05:55.906Z,22.58
2023-04-07T03:08:22.504Z,19.73
2023-04-07T03:10:49.283Z,22.75
2023-04-07T03:13:19.303Z,22.00
2023-04-07T03:15:46.168Z,19.85
2023-04-07T03:18:13.015Z,21.55
2023-04-07T03:20:41.946Z,23.40
2023-04-07T03:23:08.959Z,20.65
2023-04-07T03:25:35.809Z,25.13
2023-04-07T03:28:02.469Z,24.20
2023-04-07T03:30:29.114Z,22.83
2023-04-07T03:32:55.869Z,24.17
2023-04-07T03:35:22.683Z,19.15
2023-04-07T03:37:49.495Z,19.77
2023-04-07T03:40:16.371Z,26.65
2023-04-07T03:42:43.497Z,23.80
2023-04-07T03:45:10.541Z,25.70
2023-04-07T03:47:37.442Z,28.90
2023-04-07T03:50:04.419Z,24.05
2023-04-07T03:52:31.045Z,23.95
2023-04-07T03:54:57.648Z,21.30
2023-04-07T03:57:24.396Z,21.58
2023-04-07T03:59:51.364Z,24.83
2023-04-07T04:02:19.232Z,22.08
2023-04-07T04:04:45.960Z,28.13
2023-04-07T04:07:12.736Z,22.80
2023-04-07T04:09:39.281Z,24.38
2023-04-07T04:12:06.199Z,19.38
2023-04-07T04:14:32.850Z,23.55
2023-04-07T04:16:59.450Z,25.92
2023-04-07T04:19:26.447Z,21.30
2023-04-07T04:21:53.199Z,24.15
2023-04-07T04:24:19.819Z,22.65
2023-04-07T04:26:46.492Z,22.42
2023-04-07T04:29:13.098Z,22.15
2023-04-07T04:31:39.824Z,22.20
2023-04-07T04:34:06.886Z,23.60
2023-04-07T04:36:33.685Z,22.90
2023-04-07T04:39:00.456Z,21.23
2023-04-07T04:41:27.205Z,22.00
2023-04-07T04:43:53.938Z,25.45
2023-04-07T04:46:20.615Z,22.58
2023-04-07T04:48:47.218Z,20.58
2023-04-07T04:51:13.855Z,22.98
2023-04-07T04:53:40.796Z,24.23
2023-04-07T04:56:07.740Z,28.42
2023-04-07T04:58:35.217Z,22.27
2023-04-07T05:01:02.021Z,21.55
2023-04-07T05:03:29.262Z,20.45
2023-04-07T05:05:56.251Z,20.45
2023-04-07T05:08:22.919Z,23.40
2023-04-07T05:10:49.721Z,23.80
2023-04-07T05:13:16.470Z,20.10
2023-04-07T05:15:43.348Z,26.13
2023-04-07T05:18:10.028Z,20.42
2023-04-07T05:20:36.702Z,20.98
2023-04-07T05:23:03.614Z,21.88
2023-04-07T05:25:30.442Z,21.02
2023-04-07T05:27:59.737Z,23.92
2023-04-07T05:30:26.534Z,21.10
2023-04-07T05:32:53.937Z,23.42
2023-04-07T05:35:20.838Z,32.92
2023-04-07T05:37:47.457Z,34.15
2023-04-07T05:40:14.601Z,36.20
2023-04-07T05:42:41.676Z,34.20
2023-04-07T05:45:09.814Z,28.58
2023-04-07T05:47:36.459Z,27.90
2023-04-07T05:50:03.293Z,22.73
2023-04-07T05:52:29.939Z,25.20
2023-04-07T05:54:56.570Z,23.67
2023-04-07T05:57:23.224Z,23.80
2023-04-07T05:59:50.004Z,27.80
2023-04-07T06:02:16.979Z,22.33
2023-04-07T06:04:43.665Z,25.45
2023-04-07T06:07:10.394Z,25.58
2023-04-07T06:09:36.975Z,21.42
2023-04-07T06:12:06.856Z,20.83
2023-04-07T06:14:33.505Z,24.65
2023-04-07T06:17:00.506Z,26.73
2023-04-07T06:19:30.183Z,25.13
2023-04-07T06:21:56.821Z,25.63
2023-04-07T06:24:25.279Z,26.67
2023-04-07T06:26:55.213Z,25.57
2023-04-07T06:29:21.972Z,25.60
2023-04-07T06:31:48.706Z,25.60
2023-04-07T06:34:15.330Z,24.52
2023-04-07T06:36:42.036Z,23.90
2023-04-07T06:39:08.841Z,22.95
2023-04-07T06:41:35.571Z,27.50
2023-04-07T06:44:02.289Z,25.13
2023-04-07T06:46:29.199Z,23.48
2023-04-07T06:48:56.130Z,26.73
2023-04-07T06:51:22.714Z,28.10
2023-04-07T06:53:49.817Z,24.30
2023-04-07T06:56:16.677Z,27.25
2023-04-07T06:58:43.449Z,24.15
2023-04-07T07:01:10.153Z,25.33
2023-04-07T07:03:36.905Z,23.52
2023-04-07T07:06:03.732Z,25.73
2023-04-07T07:08:30.926Z,25.48
2023-04-07T07:10:57.821Z,24.38
2023-04-07T07:13:26.571Z,25.52
2023-04-07T07:15:53.871Z,26.50
2023-04-07T07:18:20.659Z,25.77
2023-04-07T07:20:47.374Z,23.17
2023-04-07T07:23:14.031Z,26.70
2023-04-07T07:25:40.759Z,25.08
2023-04-07T07:28:07.421Z,26.55
2023-04-07T07:30:34.044Z,21.63
2023-04-07T07:33:00.787Z,24.10
2023-04-07T07:35:27.461Z,21.55
2023-04-07T07:37:54.157Z,24.35
2023-04-07T07:40:20.954Z,20.40
2023-04-07T07:42:47.801Z,19.38
2023-04-07T07:45:14.663Z,19.38
2023-04-07T07:47:42.119Z,19.13
2023-04-07T07:50:09.005Z,18.50
2023-04-07T07:52:35.738Z,17.55
2023-04-07T07:55:02.828Z,16.23
2023-04-07T07:57:31.222Z,18.98
2023-04-07T07:59:57.948Z,19.15
2023-04-07T08:02:30.822Z,17.85
2023-04-07T08:04:58.112Z,16.60
2023-04-07T08:07:24.885Z,20.13
2023-04-07T08:09:51.589Z,15.13
2023-04-07T08:12:18.188Z,17.77
2023-04-07T08:14:45.194Z,16.02
2023-04-07T08:17:12.585Z,13.73
2023-04-07T08:19:39.689Z,16.77
2023-04-07T08:22:06.479Z,16.27
2023-04-07T08:24:33.151Z,43.97
2023-04-07T08:26:59.971Z,16.55
2023-04-07T08:29:26.594Z,13.02
2023-04-07T08:31:53.323Z,14.57
2023-04-07T08:34:21.310Z,15.07
2023-04-07T08:36:48.252Z,13.77
2023-04-07T08:39:14.856Z,16.13
2023-04-07T08:41:42.528Z,12.63
2023-04-07T08:44:10.659Z,13.18
2023-04-07T08:46:39.925Z,12.52
2023-04-07T08:49:15.857Z,13.88
2023-04-07T08:51:47.710Z,14.00
2023-04-07T08:54:18.760Z,13.68
2023-04-07T08:56:45.713Z,15.77
2023-04-07T08:59:14.758Z,17.30
2023-04-07T09:01:42.049Z,13.05
2023-04-07T09:04:10.555Z,14.55
2023-04-07T09:06:38.100Z,13.68
2023-04-07T09:09:08.240Z,13.38
2023-04-07T09:11:40.300Z,14.00
2023-04-07T09:14:07.775Z,15.65
2023-04-07T09:16:35.259Z,13.43
2023-04-07T09:19:01.981Z,15.50
2023-04-07T09:21:47.835Z,13.85
2023-04-07T09:24:29.048Z,12.90
2023-04-07T09:27:18.018Z,14.20
2023-04-07T09:29:47.038Z,12.63
2023-04-07T09:32:36.593Z,13.93
2023-04-07T09:35:03.308Z,11.40
2023-04-07T09:37:29.917Z,11.30
2023-04-07T09:39:56.542Z,11.52
2023-04-07T09:42:23.323Z,12.00
2023-04-07T09:44:50.053Z,12.30
2023-04-07T09:47:17.292Z,12.30
2023-04-07T09:49:56.065Z,13.23
2023-04-07T09:52:25.579Z,11.90
2023-04-07T09:57:21.218Z,13.90
2023-04-07T09:59:48.913Z,15.07
2023-04-07T10:02:16.254Z,11.40
2023-04-07T10:04:43.896Z,12.95
2023-04-07T10:07:10.727Z,13.13
2023-04-07T10:09:37.357Z,13.15
2023-04-07T10:12:05.232Z,12.73
2023-04-07T10:14:32.582Z,12.75
2023-04-07T10:17:04.062Z,11.75
2023-04-07T10:19:35.242Z,13.50
2023-04-07T10:22:03.810Z,14.52
2023-04-07T10:24:52.033Z,18.97
2023-04-07T10:27:27.654Z,13.02
2023-04-07T10:29:54.945Z,14.88
2023-04-07T10:32:21.954Z,15.18
2023-04-07T10:34:51.318Z,14.43
2023-04-07T10:37:21.277Z,16.45
2023-04-07T10:40:19.126Z,15.05
2023-04-07T10:42:49.191Z,15.20
2023-04-07T10:45:15.878Z,13.18
2023-04-07T10:48:04.231Z,17.33
2023-04-07T10:50:31.112Z,13.65
2023-04-07T10:53:10.782Z,14.32
2023-04-07T10:55:39.560Z,14.15
2023-04-07T10:58:24.590Z,14.20
2023-04-07T11:00:57.651Z,17.77
2023-04-07T11:03:25.734Z,15.30
2023-04-07T11:05:52.581Z,15.27
2023-04-07T11:08:42.336Z,15.00
2023-04-07T11:11:11.173Z,15.13
2023-04-07T11:13:48.087Z,16.50
2023-04-07T11:16:17.521Z,13.50
2023-04-07T11:21:11.459Z,15.02
2023-04-07T11:23:46.453Z,18.63
2023-04-07T11:26:15.102Z,17.90
2023-04-07T11:28:53.038Z,12.90
2023-04-07T11:31:23.604Z,15.57
2023-04-07T11:33:59.384Z,18.00
2023-04-07T11:36:32.364Z,16.88
2023-04-07T11:38:59.932Z,15.57
2023-04-07T11:41:29.155Z,17.92
2023-04-07T11:44:06.945Z,17.73
2023-04-07T11:46:33.715Z,16.35
2023-04-07T11:49:11.621Z,15.23
2023-04-07T11:51:38.342Z,15.70
2023-04-07T11:54:05.350Z,14.90
2023-04-07T11:56:45.792Z,16.08
2023-04-07T11:59:23.870Z,12.35
2023-04-07T12:01:51.729Z,14.98
2023-04-07T12:04:19.670Z,14.25
2023-04-07T12:06:48.661Z,16.00
2023-04-07T12:09:36.490Z,15.38
2023-04-07T12:12:08.355Z,14.32
2023-04-07T12:14:35.662Z,13.55
2023-04-07T12:17:03.753Z,15.52
2023-04-07T12:19:36.128Z,17.40
2023-04-07T12:22:03.801Z,14.48
2023-04-07T12:24:32.354Z,20.10
2023-04-07T12:26:59.651Z,15.53
2023-04-07T12:29:26.346Z,16.42
2023-04-07T12:31:53.077Z,17.17
2023-04-07T12:34:19.836Z,17.42
2023-04-07T12:36:46.513Z,15.95
2023-04-07T12:39:13.275Z,19.23
2023-04-07T12:41:40.088Z,16.15
2023-04-07T12:44:07.046Z,18.70
2023-04-07T12:46:33.783Z,17.60
2023-04-07T12:49:01.157Z,16.50
2023-04-07T12:51:28.504Z,16.35
2023-04-07T12:53:55.206Z,16.85
2023-04-07T12:56:24.564Z,15.85
2023-04-07T13:01:17.951Z,17.95
2023-04-07T13:03:45.201Z,15.65
2023-04-07T13:06:12.240Z,14.80
2023-04-07T13:08:39.988Z,15.55
2023-04-07T13:11:07.581Z,15.38
2023-04-07T13:13:34.494Z,14.82
2023-04-07T13:16:01.342Z,16.75
2023-04-07T13:18:28.052Z,15.48
2023-04-07T13:21:14.337Z,14.30
2023-04-07T13:23:43.894Z,15.63
2023-04-07T13:26:11.451Z,14.45
2023-04-07T13:28:38.940Z,16.17
2023-04-07T13:31:05.815Z,13.55
2023-04-07T13:33:32.503Z,15.73
2023-04-07T13:35:59.255Z,12.40
2023-04-07T13:38:26.444Z,15.60
2023-04-07T13:40:53.036Z,12.68
2023-04-07T13:43:20.268Z,13.02
2023-04-07T13:45:46.998Z,13.10
2023-04-07T13:48:13.713Z,14.65
2023-04-07T13:50:40.999Z,13.88
2023-04-07T13:53:07.785Z,15.75
2023-04-07T13:55:34.469Z,13.05
2023-04-07T13:58:01.331Z,12.80
2023-04-07T14:00:28.197Z,13.60
2023-04-07T14:02:56.256Z,13.48
2023-04-07T14:05:24.734Z,13.75
2023-04-07T14:07:51.547Z,14.32
2023-04-07T14:10:18.427Z,12.82
2023-04-07T14:12:45.156Z,14.55
2023-04-07T14:15:11.975Z,13.57
2023-04-07T14:17:38.770Z,12.85
2023-04-07T14:20:06.542Z,12.45
2023-04-07T14:22:33.320Z,13.68
2023-04-07T14:25:00.040Z,12.43
2023-04-07T14:27:27.080Z,12.10
2023-04-07T14:29:56.250Z,14.27
2023-04-07T14:32:22.855Z,12.13
2023-04-07T14:34:50.496Z,13.90
2023-04-07T14:37:18.763Z,15.60
2023-04-07T14:39:55.291Z,12.43
2023-04-07T14:42:26.123Z,12.55
2023-04-07T14:44:53.221Z,11.90
2023-04-07T14:47:21.039Z,11.68
2023-04-07T14:49:50.027Z,10.50
2023-04-07T14:52:19.490Z,12.30
2023-04-07T14:54:46.171Z,11.70
2023-04-07T14:57:12.820Z,11.60
2023-04-07T14:59:39.481Z,11.68
2023-04-07T15:02:06.822Z,12.80
2023-04-07T15:04:33.806Z,10.90
2023-04-07T15:07:00.489Z,12.52
2023-04-07T15:09:27.151Z,10.43
2023-04-07T15:11:54.157Z,12.05
2023-04-07T15:14:20.812Z,10.85
2023-04-07T15:16:50.262Z,11.65
2023-04-07T15:19:17.079Z,10.15
2023-04-07T15:21:43.668Z,12.95
2023-04-07T15:24:10.272Z,15.98
2023-04-07T15:26:36.901Z,10.48
2023-04-07T15:29:03.539Z,10.18
2023-04-07T15:31:30.421Z,11.05
2023-04-07T15:33:57.106Z,10.35
2023-04-07T15:36:23.768Z,12.20
2023-04-07T15:38:50.399Z,10.45
2023-04-07T15:41:17.437Z,10.25
2023-04-07T15:43:44.104Z,10.68
2023-04-07T15:46:10.811Z,10.90
2023-04-07T15:48:37.435Z,11.57
2023-04-07T15:51:04.404Z,12.95
2023-04-07T15:53:31.133Z,11.23
2023-04-07T15:55:57.978Z,12.70
2023-04-07T15:58:24.659Z,19.77
2023-04-07T16:00:51.763Z,11.43
2023-04-07T16:03:18.599Z,12.80
2023-04-07T16:05:45.482Z,14.02
2023-04-07T16:08:13.690Z,13.80
2023-04-07T16:10:40.848Z,10.87
2023-04-07T16:13:07.483Z,12.05
2023-04-07T16:15:40.823Z,13.60
2023-04-07T16:18:14.097Z,13.55
2023-04-07T16:20:40.856Z,10.98
2023-04-07T16:23:07.587Z,13.60
2023-04-07T16:25:34.308Z,13.38
2023-04-07T16:28:00.978Z,13.32
2023-04-07T16:30:27.750Z,10.93
2023-04-07T16:32:54.443Z,10.65
2023-04-07T16:35:21.474Z,14.77
2023-04-07T16:37:49.807Z,11.18
2023-04-07T16:40:16.524Z,12.77
2023-04-07T16:42:43.226Z,10.15
2023-04-07T16:45:10.436Z,11.43
2023-04-07T16:47:38.200Z,17.15
2023-04-07T16:50:05.895Z,12.85
2023-04-07T16:52:32.812Z,13.45
2023-04-07T16:55:01.052Z,12.20
2023-04-07T16:57:27.708Z,11.20
2023-04-07T16:59:54.422Z,14.63
2023-04-07T17:02:21.235Z,15.48
2023-04-07T17:04:48.094Z,13.15
2023-04-07T17:07:14.732Z,13.38
2023-04-07T17:09:41.366Z,11.43
2023-04-07T17:12:08.059Z,12.70
2023-04-07T17:14:34.815Z,29.85
2023-04-07T17:17:02.150Z,11.98
2023-04-07T17:19:29.064Z,14.00
2023-04-07T17:21:55.759Z,14.13
2023-04-07T17:24:22.376Z,13.65
2023-04-07T17:26:49.056Z,15.23
2023-04-07T17:29:16.743Z,13.23
2023-04-07T17:31:43.979Z,15.07
2023-04-07T17:34:11.962Z,16.02
2023-04-07T17:36:39.044Z,12.05
2023-04-07T17:39:06.069Z,15.05
2023-04-07T17:41:34.732Z,24.73
2023-04-07T17:44:02.193Z,15.63
2023-04-07T17:46:29.842Z,13.32
2023-04-07T17:48:59.868Z,15.82
2023-04-07T17:51:27.674Z,15.80
2023-04-07T17:53:54.697Z,19.23
2023-04-07T17:56:21.680Z,20.38
2023-04-07T17:58:48.658Z,14.27
2023-04-07T18:01:16.864Z,13.75
2023-04-07T18:03:43.902Z,13.57
2023-04-07T18:06:16.984Z,13.15
2023-04-07T18:08:47.638Z,13.48
2023-04-07T18:11:15.089Z,12.68
2023-04-07T18:13:41.849Z,13.35
2023-04-07T18:16:11.530Z,12.68
2023-04-07T18:18:38.189Z,11.55
2023-04-07T18:21:06.671Z,13.63
2023-04-07T18:23:33.790Z,12.40
2023-04-07T18:26:05.199Z,13.20
2023-04-07T18:28:32.150Z,12.25
2023-04-07T18:31:02.599Z,12.98
2023-04-07T18:33:32.961Z,13.95
2023-04-07T18:36:04.362Z,13.93
2023-04-07T18:38:31.148Z,12.88
2023-04-07T18:40:57.949Z,12.70
2023-04-07T18:43:25.112Z,13.35
2023-04-07T18:45:52.846Z,13.93
2023-04-07T18:48:20.278Z,13.43
2023-04-07T18:50:54.655Z,15.13
2023-04-07T18:53:22.513Z,11.57
2023-04-07T18:55:50.015Z,11.50
2023-04-07T18:58:16.864Z,11.60
2023-04-07T19:00:44.509Z,12.70
2023-04-07T19:03:11.932Z,13.23
2023-04-07T19:05:42.297Z,12.75
2023-04-07T19:08:09.288Z,12.85
2023-04-07T19:10:36.062Z,13.00
2023-04-07T19:13:03.175Z,17.23
2023-04-07T19:15:34.486Z,9.98
2023-04-07T19:18:02.492Z,10.63
2023-04-07T19:20:33.785Z,13.13
2023-04-07T19:23:01.607Z,11.05
2023-04-07T19:25:28.233Z,10.98
2023-04-07T19:27:54.911Z,11.63
2023-04-07T19:30:21.778Z,14.23
2023-04-07T19:32:48.654Z,14.10
2023-04-07T19:35:16.287Z,10.02
2023-04-07T19:37:42.988Z,16.25
2023-04-07T19:40:10.167Z,12.23
2023-04-07T19:42:38.072Z,15.27
2023-04-07T19:45:08.076Z,12.88
2023-04-07T19:47:35.890Z,9.80
2023-04-07T19:50:04.029Z,12.20
2023-04-07T19:52:32.097Z,13.32
2023-04-07T19:54:59.828Z,13.10
2023-04-07T19:57:27.902Z,13.20
2023-04-07T19:59:54.534Z,11.93
2023-04-07T20:02:21.766Z,10.77
2023-04-07T20:04:48.811Z,11.20
2023-04-07T20:07:15.706Z,11.65
2023-04-07T20:09:42.367Z,10.02
2023-04-07T20:12:09.119Z,13.63
2023-04-07T20:14:36.046Z,11.40
2023-04-07T20:17:02.847Z,11.82
2023-04-07T20:19:29.552Z,18.17
2023-04-07T20:21:56.635Z,10.68
2023-04-07T20:24:23.211Z,15.55
2023-04-07T20:26:49.843Z,16.20
2023-04-07T20:29:16.693Z,14.68
2023-04-07T20:31:44.149Z,15.55
2023-04-07T20:34:10.763Z,11.88
2023-04-07T20:36:37.433Z,10.60
2023-04-07T20:39:04.292Z,13.70
2023-04-07T20:41:31.212Z,11.43
2023-04-07T20:43:58.698Z,10.60
2023-04-07T20:46:25.401Z,10.65
2023-04-07T20:48:52.825Z,12.25
2023-04-07T20:51:19.484Z,12.13
2023-04-07T20:53:46.110Z,10.15
2023-04-07T20:56:12.821Z,11.70
2023-04-07T20:58:39.530Z,14.70
2023-04-07T21:01:06.266Z,11.82
2023-04-07T21:03:33.057Z,12.00
2023-04-07T21:05:59.725Z,14.32
2023-04-07T21:08:26.573Z,11.57
2023-04-07T21:10:53.438Z,11.40
2023-04-07T21:13:21.224Z,11.68
2023-04-07T21:15:48.310Z,12.00
2023-04-07T21:18:15.108Z,11.23
2023-04-07T21:20:41.894Z,11.27
2023-04-07T21:23:08.721Z,9.30
2023-04-07T21:25:38.345Z,9.57
2023-04-07T21:28:05.715Z,9.85
2023-04-07T21:30:33.259Z,9.70
2023-04-07T21:33:00.118Z,8.27
2023-04-07T21:35:28.806Z,9.93
2023-04-07T21:37:56.419Z,9.25
2023-04-07T21:40:23.101Z,8.60
2023-04-07T21:42:52.031Z,9.02
2023-04-07T21:45:19.633Z,10.80
2023-04-07T21:47:46.744Z,8.73
2023-04-07T21:50:13.709Z,8.80
2023-04-07T21:52:41.280Z,11.05
2023-04-07T21:55:10.070Z,8.43
2023-04-07T21:57:36.925Z,11.15
2023-04-07T22:00:04.127Z,9.52
2023-04-07T22:02:31.051Z,9.15
2023-04-07T22:04:57.964Z,8.75
2023-04-07T22:07:24.796Z,9.68
2023-04-07T22:09:51.430Z,6.40
2023-04-07T22:12:18.094Z,8.07
2023-04-07T22:14:45.403Z,11.75
2023-04-07T22:17:12.003Z,7.38
2023-04-07T22:19:38.643Z,6.47
2023-04-07T22:22:07.730Z,7.10
2023-04-07T22:24:35.175Z,7.53
2023-04-07T22:27:02.293Z,6.82
2023-04-07T22:29:29.060Z,6.55
2023-04-07T22:31:55.762Z,6.35
2023-04-07T22:34:22.460Z,5.93
2023-04-07T22:36:49.087Z,7.47
2023-04-07T22:39:15.716Z,7.93
2023-04-07T22:41:42.360Z,8.38
2023-04-07T22:44:09.019Z,6.47
2023-04-07T22:46:35.899Z,8.20
2023-04-07T22:49:02.891Z,7.45
2023-04-07T22:51:29.546Z,7.68
2023-04-07T22:53:57.243Z,10.00
2023-04-07T22:56:24.338Z,6.70
2023-04-07T22:58:51.591Z,7.88
2023-04-07T23:01:18.613Z,8.88
2023-04-07T23:03:45.505Z,8.10
2023-04-07T23:06:12.154Z,8.60
2023-04-07T23:08:38.801Z,7.43
2023-04-07T23:11:09.251Z,7.05
2023-04-07T23:13:35.923Z,8.52
2023-04-07T23:16:03.942Z,6.60
2023-04-07T23:18:31.565Z,7.50
2023-04-07T23:20:58.251Z,7.82
2023-04-07T23:23:24.922Z,6.70
2023-04-07T23:25:51.680Z,7.15
2023-04-07T23:28:18.336Z,6.07
2023-04-07T23:30:44.965Z,5.47
2023-04-07T23:33:12.622Z,5.82
2023-04-07T23:35:39.279Z,6.97
2023-04-07T23:38:08.815Z,5.43
2023-04-07T23:43:02.251Z,6.72
2023-04-07T23:45:29.224Z,5.68
2023-04-07T23:47:56.094Z,9.70
2023-04-07T23:50:23.109Z,7.30
2023-04-07T23:52:49.737Z,5.57
2023-04-07T23:55:16.454Z,7.75
2023-04-07T23:57:43.321Z,5.60
